ZNZ weather

Abeid Amani Karume International Airport
Zanzibar, Kaskazini Unguja Region, Tanzania

Public forecast

Using degrees Celsius for public forecast. Weather courtesy of forecast.io.

Current aviation weather report (METAR) for Abeid Amani Karume International Airport

Retrieved 2020/02/27 02:00 UTC (40 minutes ago):

HTZA 270200Z 00000KT 9999 SCT014 25/24 Q1010 NOSIG

Aviation forecast (TAF) for Abeid Amani Karume International Airport

Forecast is more than 12 hours old.

Retrieved 2020-02-26 00:00 UTC (1 day ago):

TAF HTZA 252300Z 2600/2624 00000KT 9999 BKN014 BKN080 BECMG 2604/2606 36010KT BECMG 2610/2612 09010KT SCT024 BECMG 2616/2618 00000KT